Time;durP1;ratioP1;P1;durP2;ratioP2;P2;SDS_P1;SDS_P2;PMS_P1;PMS_P2;Temp;Humidity;BMP_temperature;BMP_pressure;BME280_temperature;BME280_humidity;BME280_pressure;Samples;Min_cycle;Max_cycle;Signal;HPM_P1;HPM_P2
2022/10/06 00:02:19;;;;;;;2.05;0.77;;;;;19.40;101891.00;;;;4991376;28;20622;-78
2022/10/06 00:04:46;;;;;;;4.50;0.82;;;;;19.40;101895.00;;;;4990732;28;20209;-78
2022/10/06 00:07:14;;;;;;;4.75;0.80;;;;;19.40;101902.00;;;;4992015;28;20222;-78
2022/10/06 00:09:42;;;;;;;2.53;0.60;;;;;19.30;101907.00;;;;4992516;28;20217;-78
2022/10/06 00:12:09;;;;;;;1.52;0.70;;;;;19.30;101912.00;;;;4980100;28;20209;-79
2022/10/06 00:14:37;;;;;;;5.22;0.50;;;;;19.30;101925.00;;;;4991496;28;20714;-78
2022/10/06 00:17:05;;;;;;;3.92;0.80;;;;;19.30;101922.00;;;;4991248;28;20197;-78
2022/10/06 00:19:33;;;;;;;3.33;0.80;;;;;19.20;101921.00;;;;4991101;28;20202;-78
2022/10/06 00:22:01;;;;;;;3.75;0.60;;;;;19.20;101933.00;;;;4991703;28;20221;-78
2022/10/06 00:24:28;;;;;;;3.08;0.77;;;;;19.20;101939.00;;;;4992020;28;20209;-78
2022/10/06 00:26:55;;;;;;;2.38;0.70;;;;;19.20;101946.00;;;;4991859;28;20193;-78
2022/10/06 00:29:22;;;;;;;9.52;1.15;;;;;19.20;101960.00;;;;4992408;28;20210;-78
2022/10/06 00:31:50;;;;;;;4.43;1.08;;;;;19.20;101960.00;;;;4990737;28;20225;-78
2022/10/06 00:34:17;;;;;;;2.80;0.57;;;;;19.10;101964.00;;;;4985369;28;21031;-79
2022/10/06 00:36:46;;;;;;;4.47;1.02;;;;;19.10;101968.00;;;;4989928;28;20212;-78
2022/10/06 00:39:13;;;;;;;7.25;0.60;;;;;19.10;101979.00;;;;4990490;28;20205;-78
2022/10/06 00:41:40;;;;;;;8.40;0.90;;;;;19.10;101980.00;;;;4991541;28;20205;-78
2022/10/06 00:44:07;;;;;;;3.78;0.70;;;;;19.10;101986.00;;;;4988453;28;20625;-78
2022/10/06 00:46:40;;;;;;;2.80;0.85;;;;;19.00;101996.00;;;;4989132;28;20197;-78
2022/10/06 00:49:12;;;;;;;8.82;1.25;;;;;19.00;102004.00;;;;4990073;28;20229;-78
2022/10/06 00:51:44;;;;;;;4.68;1.10;;;;;19.00;102008.00;;;;4991033;28;21041;-78
2022/10/06 00:54:13;;;;;;;12.00;1.02;;;;;19.00;102009.00;;;;4989350;28;20301;-78
2022/10/06 00:56:41;;;;;;;2.85;0.43;;;;;19.00;102008.00;;;;4986288;28;20416;-78
2022/10/06 00:59:11;;;;;;;3.35;0.60;;;;;18.90;102012.00;;;;4990658;28;20204;-78
2022/10/06 01:01:41;;;;;;;3.53;0.68;;;;;18.90;102015.00;;;;4985294;28;20202;-78
2022/10/06 01:04:12;;;;;;;5.75;0.60;;;;;18.90;102018.00;;;;4987992;28;20213;-78
2022/10/06 01:06:45;;;;;;;7.82;0.82;;;;;18.90;102025.00;;;;4989917;28;20210;-79
2022/10/06 01:09:16;;;;;;;8.00;0.85;;;;;18.90;102030.00;;;;4989841;28;20221;-78
2022/10/06 01:11:45;;;;;;;3.42;0.73;;;;;18.90;102037.00;;;;4996697;28;20208;-78
2022/10/06 01:14:12;;;;;;;3.30;0.65;;;;;18.90;102038.00;;;;4990280;28;20225;-78
2022/10/06 01:16:43;;;;;;;1.70;0.70;;;;;18.90;102046.00;;;;4986586;28;20660;-78
2022/10/06 01:19:20;;;;;;;2.55;0.60;;;;;18.90;102044.00;;;;4978583;28;20934;-78
2022/10/06 01:21:51;;;;;;;2.35;0.50;;;;;18.90;102054.00;;;;4987402;28;20197;-78
2022/10/06 01:24:20;;;;;;;3.03;0.77;;;;;18.90;102050.00;;;;4989134;28;20198;-78
2022/10/06 01:26:50;;;;;;;4.28;0.50;;;;;18.90;102049.00;;;;4988994;28;20687;-78
2022/10/06 01:29:18;;;;;;;3.22;0.80;;;;;18.90;102059.00;;;;4988646;28;20224;-78
2022/10/06 01:31:46;;;;;;;3.72;0.65;;;;;18.80;102070.00;;;;4989347;28;20213;-79
2022/10/06 01:34:13;;;;;;;2.55;0.68;;;;;18.80;102076.00;;;;4989973;28;20197;-78
2022/10/06 01:36:41;;;;;;;2.33;0.50;;;;;18.80;102081.00;;;;4986363;28;20205;-78
2022/10/06 01:39:08;;;;;;;4.35;0.60;;;;;18.80;102079.00;;;;4989150;28;20206;-78
2022/10/06 01:41:37;;;;;;;7.80;0.65;;;;;18.80;102077.00;;;;4987738;28;20213;-78
2022/10/06 01:44:04;;;;;;;4.63;0.70;;;;;18.70;102073.00;;;;4990925;28;20202;-78
2022/10/06 01:46:32;;;;;;;3.47;0.60;;;;;18.70;102073.00;;;;4988931;28;20216;-78
2022/10/06 01:48:59;;;;;;;2.55;0.55;;;;;18.70;102083.00;;;;4994555;28;20323;-78
2022/10/06 01:51:26;;;;;;;7.25;0.95;;;;;18.60;102087.00;;;;4984684;28;20199;-78
2022/10/06 01:53:54;;;;;;;1.92;0.50;;;;;18.60;102083.00;;;;4983806;28;20228;-78
2022/10/06 01:56:21;;;;;;;4.15;1.05;;;;;18.60;102097.00;;;;4991532;28;20571;-78
2022/10/06 01:58:50;;;;;;;5.22;1.63;;;;;18.50;102100.00;;;;4982173;28;20601;-78
2022/10/06 02:01:17;;;;;;;2.00;0.50;;;;;18.50;102096.00;;;;4989382;28;20591;-78
2022/10/06 02:03:45;;;;;;;4.10;0.93;;;;;18.50;102090.00;;;;4989848;28;20193;-78
2022/10/06 02:06:12;;;;;;;3.10;0.57;;;;;18.50;102103.00;;;;4987747;28;20202;-78
2022/10/06 02:08:39;;;;;;;2.50;0.43;;;;;18.40;102103.00;;;;4984964;28;20230;-78
2022/10/06 02:11:09;;;;;;;2.08;0.40;;;;;18.40;102111.00;;;;4996167;28;20264;-78
2022/10/06 02:13:37;;;;;;;3.53;0.80;;;;;18.40;102113.00;;;;4989861;28;20243;-78
2022/10/06 02:16:07;;;;;;;1.58;0.50;;;;;18.40;102121.00;;;;4987136;28;20679;-78
2022/10/06 02:18:34;;;;;;;1.63;0.35;;;;;18.30;102125.00;;;;4994773;28;20209;-78
2022/10/06 02:21:02;;;;;;;2.90;0.45;;;;;18.30;102131.00;;;;4992015;28;20208;-78
2022/10/06 02:23:30;;;;;;;3.83;0.60;;;;;18.30;102129.00;;;;4995353;28;20198;-79
2022/10/06 02:26:02;;;;;;;5.60;0.40;;;;;18.20;102136.00;;;;4989199;28;20194;-78
2022/10/06 02:28:30;;;;;;;4.20;0.90;;;;;18.20;102143.00;;;;4984207;28;20236;-78
2022/10/06 02:31:01;;;;;;;4.30;0.98;;;;;18.10;102152.00;;;;4989440;28;20201;-79
2022/10/06 02:33:30;;;;;;;4.82;0.55;;;;;18.10;102140.00;;;;4989312;28;20750;-78
2022/10/06 02:35:58;;;;;;;6.75;1.13;;;;;18.10;102147.00;;;;5000984;28;20212;-78
2022/10/06 02:38:26;;;;;;;3.50;0.63;;;;;18.10;102147.00;;;;4986760;28;20202;-79
2022/10/06 02:40:53;;;;;;;2.97;0.60;;;;;18.10;102158.00;;;;4994923;28;20201;-78
2022/10/06 02:43:21;;;;;;;2.42;0.93;;;;;18.00;102165.00;;;;4987197;28;20218;-78
2022/10/06 02:45:54;;;;;;;3.25;0.43;;;;;17.90;102167.00;;;;4990488;28;20200;-79
2022/10/06 02:48:23;;;;;;;2.28;0.60;;;;;17.90;102170.00;;;;4985905;28;20773;-79
2022/10/06 02:50:55;;;;;;;6.05;0.88;;;;;17.90;102168.00;;;;4990873;28;20205;-79
2022/10/06 02:53:24;;;;;;;5.35;0.82;;;;;17.90;102171.00;;;;4987028;28;20198;-78
2022/10/06 02:55:51;;;;;;;4.57;0.90;;;;;17.90;102180.00;;;;4988706;28;20212;-78
2022/10/06 02:58:18;;;;;;;7.35;0.70;;;;;17.80;102174.00;;;;4989029;28;20475;-78
2022/10/06 03:00:45;;;;;;;3.28;0.60;;;;;17.80;102185.00;;;;4982299;28;20245;-78
2022/10/06 03:03:13;;;;;;;3.42;0.70;;;;;17.70;102191.00;;;;4987339;28;20209;-79
2022/10/06 03:05:40;;;;;;;3.60;0.63;;;;;17.70;102196.00;;;;4988525;28;20841;-78
2022/10/06 03:08:11;;;;;;;2.67;0.57;;;;;17.70;102201.00;;;;4985323;28;20233;-78
2022/10/06 03:10:38;;;;;;;3.85;0.80;;;;;17.70;102206.00;;;;4987405;28;20205;-79
2022/10/06 03:13:06;;;;;;;4.05;0.57;;;;;17.60;102208.00;;;;4987468;28;20202;-79
2022/10/06 03:15:34;;;;;;;4.97;0.85;;;;;17.60;102208.00;;;;4987241;28;20652;-79
2022/10/06 03:18:01;;;;;;;4.22;0.60;;;;;17.60;102221.00;;;;4986058;28;20202;-78
2022/10/06 03:20:28;;;;;;;4.70;0.70;;;;;17.60;102222.00;;;;4986774;28;20194;-78
2022/10/06 03:22:55;;;;;;;8.60;0.85;;;;;17.60;102220.00;;;;4987289;28;20197;-78
2022/10/06 03:25:24;;;;;;;2.30;0.77;;;;;17.60;102226.00;;;;4987666;28;20198;-78
2022/10/06 03:27:52;;;;;;;1.10;0.70;;;;;17.60;102226.00;;;;4986586;28;20288;-78
2022/10/06 03:30:20;;;;;;;4.18;0.65;;;;;17.60;102224.00;;;;4989669;28;20626;-78
2022/10/06 03:32:47;;;;;;;2.95;1.33;;;;;17.60;102232.00;;;;4988388;28;20197;-79
2022/10/06 03:35:14;;;;;;;3.08;0.47;;;;;17.60;102231.00;;;;4985856;28;20198;-78
2022/10/06 03:37:42;;;;;;;4.72;0.93;;;;;17.50;102229.00;;;;4986151;28;20205;-79
2022/10/06 03:40:10;;;;;;;3.15;0.88;;;;;17.50;102242.00;;;;4990930;28;20205;-78
2022/10/06 03:42:38;;;;;;;1.65;0.50;;;;;17.50;102248.00;;;;4986058;28;20194;-78
2022/10/06 03:45:07;;;;;;;6.28;1.10;;;;;17.50;102257.00;;;;4986543;28;20601;-79
2022/10/06 03:47:34;;;;;;;2.83;0.70;;;;;17.50;102257.00;;;;4986431;28;20667;-79
2022/10/06 03:50:01;;;;;;;3.42;0.95;;;;;17.50;102254.00;;;;4986551;28;20229;-79
2022/10/06 03:52:28;;;;;;;3.10;0.43;;;;;17.50;102263.00;;;;4990822;28;20201;-79
2022/10/06 03:54:56;;;;;;;4.07;0.85;;;;;17.50;102259.00;;;;4986338;28;20204;-79
2022/10/06 03:57:23;;;;;;;1.40;0.63;;;;;17.50;102266.00;;;;4988171;28;20398;-79
2022/10/06 03:59:51;;;;;;;3.92;0.90;;;;;17.50;102270.00;;;;4987511;28;20238;-79
2022/10/06 04:02:19;;;;;;;4.25;0.88;;;;;17.50;102276.00;;;;4987934;28;20204;-79
2022/10/06 04:04:46;;;;;;;4.80;0.80;;;;;17.50;102279.00;;;;4989919;28;20201;-79
2022/10/06 04:07:13;;;;;;;3.30;0.80;;;;;17.50;102281.00;;;;4987449;28;20630;-79
2022/10/06 04:09:40;;;;;;;3.25;1.13;;;;;17.40;102289.00;;;;4984369;28;20232;-79
2022/10/06 04:12:08;;;;;;;2.30;0.45;;;;;17.40;102297.00;;;;4988256;28;20205;-79
2022/10/06 04:14:36;;;;;;;3.17;0.98;;;;;17.40;102296.00;;;;4985718;28;20213;-79
2022/10/06 04:17:04;;;;;;;6.18;1.00;;;;;17.40;102315.00;;;;4987603;28;20221;-79
2022/10/06 04:19:32;;;;;;;3.63;0.57;;;;;17.40;102319.00;;;;4974353;28;20210;-79
2022/10/06 04:21:59;;;;;;;5.25;0.65;;;;;17.40;102319.00;;;;4992558;28;20205;-79
2022/10/06 04:24:26;;;;;;;2.33;0.65;;;;;17.40;102316.00;;;;4988587;28;20205;-78
2022/10/06 04:27:26;;;;;;;6.18;1.02;;;;;17.40;102322.00;;;;4988668;28;20224;-79
2022/10/06 04:29:41;;;;;;;5.38;0.88;;;;;17.40;102330.00;;;;4988771;28;20217;-79
2022/10/06 04:32:10;;;;;;;4.00;0.60;;;;;17.30;102329.00;;;;4991432;28;20186;-79
2022/10/06 04:34:37;;;;;;;3.05;0.65;;;;;17.30;102330.00;;;;4995289;28;20199;-79
2022/10/06 04:37:04;;;;;;;2.90;0.40;;;;;17.30;102338.00;;;;4993804;28;20198;-79
2022/10/06 04:39:32;;;;;;;2.33;0.60;;;;;17.30;102333.00;;;;4991007;28;20198;-79
2022/10/06 04:41:59;;;;;;;3.13;0.60;;;;;17.30;102336.00;;;;4989214;28;20205;-79
2022/10/06 04:44:27;;;;;;;2.95;0.50;;;;;17.30;102346.00;;;;4988216;28;20655;-79
2022/10/06 04:46:54;;;;;;;4.03;0.90;;;;;17.30;102347.00;;;;4988254;28;20216;-79
2022/10/06 04:49:23;;;;;;;6.03;0.55;;;;;17.20;102349.00;;;;4992484;28;20609;-79
2022/10/06 04:51:50;;;;;;;5.97;0.65;;;;;17.30;102350.00;;;;5010813;28;20204;-79
2022/10/06 04:54:18;;;;;;;3.30;0.50;;;;;17.20;102351.00;;;;4997894;28;20213;-79
2022/10/06 04:56:46;;;;;;;3.15;0.70;;;;;17.20;102349.00;;;;4988055;28;20283;-79
2022/10/06 04:59:13;;;;;;;3.47;0.70;;;;;17.20;102362.00;;;;4990987;28;20657;-79
2022/10/06 05:01:40;;;;;;;2.83;0.45;;;;;17.20;102367.00;;;;4990426;28;20256;-79
2022/10/06 05:04:09;;;;;;;3.03;0.50;;;;;17.20;102364.00;;;;4988810;28;20671;-79
2022/10/06 05:06:39;;;;;;;8.45;0.80;;;;;17.20;102373.00;;;;4987120;28;20197;-79
2022/10/06 05:09:08;;;;;;;7.00;0.70;;;;;17.20;102374.00;;;;4989785;28;20249;-79
2022/10/06 05:11:36;;;;;;;1.42;0.73;;;;;17.20;102378.00;;;;4990345;28;20201;-79
2022/10/06 05:14:04;;;;;;;2.47;0.77;;;;;17.10;102378.00;;;;4988045;28;20233;-79
2022/10/06 05:16:32;;;;;;;5.40;0.93;;;;;17.10;102384.00;;;;4987776;28;20217;-79
2022/10/06 05:18:59;;;;;;;2.40;0.63;;;;;17.10;102394.00;;;;4993146;28;20210;-79
2022/10/06 05:21:29;;;;;;;4.10;0.60;;;;;17.10;102389.00;;;;4989340;28;20210;-79
2022/10/06 05:23:58;;;;;;;2.40;0.90;;;;;17.10;102402.00;;;;4990044;28;20209;-79
2022/10/06 05:26:27;;;;;;;4.25;0.63;;;;;17.10;102402.00;;;;4983389;28;21292;-79
2022/10/06 05:28:54;;;;;;;3.63;0.90;;;;;17.10;102408.00;;;;4988131;28;20221;-79
2022/10/06 05:31:25;;;;;;;4.55;0.65;;;;;17.00;102409.00;;;;4987373;28;20198;-79
2022/10/06 05:33:53;;;;;;;3.63;0.65;;;;;17.10;102419.00;;;;4989547;28;20224;-79
2022/10/06 05:36:22;;;;;;;2.58;0.63;;;;;17.00;102417.00;;;;4991221;28;20214;-79
2022/10/06 05:38:49;;;;;;;2.53;0.50;;;;;17.00;102428.00;;;;4989671;28;20193;-79
2022/10/06 05:41:19;;;;;;;3.78;0.75;;;;;17.00;102423.00;;;;4988683;28;20217;-79
2022/10/06 05:43:47;;;;;;;1.73;0.40;;;;;17.00;102423.00;;;;4985743;28;20655;-80
2022/10/06 05:46:19;;;;;;;3.30;0.82;;;;;17.00;102428.00;;;;4988846;28;20198;-79
2022/10/06 05:48:46;;;;;;;3.67;0.30;;;;;17.00;102434.00;;;;4984904;28;20202;-78
2022/10/06 05:51:14;;;;;;;6.07;1.00;;;;;16.90;102442.00;;;;4986545;28;20214;-77
2022/10/06 05:53:41;;;;;;;5.18;1.27;;;;;16.90;102449.00;;;;4987029;28;20264;-79
2022/10/06 05:56:11;;;;;;;4.07;0.80;;;;;16.90;102443.00;;;;5004359;28;20205;-78
2022/10/06 05:58:42;;;;;;;4.90;1.08;;;;;16.80;102451.00;;;;4984457;28;20958;-81
2022/10/06 06:01:12;;;;;;;5.18;0.60;;;;;16.90;102446.00;;;;4990293;28;20602;-79
2022/10/06 06:03:40;;;;;;;4.22;0.70;;;;;16.90;102462.00;;;;4985277;28;20202;-79
2022/10/06 06:06:17;;;;;;;3.13;1.00;;;;;16.80;102463.00;;;;4988300;28;20205;-80
2022/10/06 06:08:44;;;;;;;2.45;0.82;;;;;16.80;102469.00;;;;4991799;28;20204;-79
2022/10/06 06:11:12;;;;;;;5.05;0.75;;;;;16.80;102466.00;;;;4989951;28;20690;-79
2022/10/06 06:13:41;;;;;;;3.60;0.55;;;;;16.80;102474.00;;;;4989490;28;20228;-79
2022/10/06 06:16:12;;;;;;;5.13;0.98;;;;;16.80;102473.00;;;;4989317;28;20208;-79
2022/10/06 06:18:40;;;;;;;1.42;0.47;;;;;16.80;102477.00;;;;4988574;28;20229;-79
2022/10/06 06:21:09;;;;;;;4.65;1.02;;;;;16.80;102478.00;;;;5004243;28;20204;-80
2022/10/06 06:23:38;;;;;;;4.13;1.20;;;;;16.70;102482.00;;;;4987225;28;20206;-80
2022/10/06 06:26:08;;;;;;;5.30;1.30;;;;;16.70;102488.00;;;;4983296;28;20208;-78
2022/10/06 06:28:35;;;;;;;5.57;1.30;;;;;16.80;102489.00;;;;4990418;28;20194;-78
2022/10/06 06:31:06;;;;;;;5.22;1.15;;;;;16.70;102495.00;;;;4985012;28;20970;-79
2022/10/06 06:33:36;;;;;;;4.82;1.58;;;;;16.80;102484.00;;;;4993200;28;20247;-79
2022/10/06 06:36:11;;;;;;;2.20;0.80;;;;;16.80;102487.00;;;;4990128;28;20198;-79
2022/10/06 06:38:39;;;;;;;6.80;0.93;;;;;16.80;102494.00;;;;4989254;28;20668;-78
2022/10/06 06:41:14;;;;;;;3.83;0.90;;;;;16.70;102498.00;;;;4988386;28;20232;-79
2022/10/06 06:43:42;;;;;;;4.28;1.15;;;;;16.80;102505.00;;;;4989415;28;20205;-78
2022/10/06 06:46:13;;;;;;;3.35;0.70;;;;;16.80;102509.00;;;;4990648;28;20197;-78
2022/10/06 06:48:40;;;;;;;4.10;1.13;;;;;16.80;102505.00;;;;4990420;28;20197;-78
2022/10/06 06:51:10;;;;;;;5.10;0.68;;;;;16.90;102504.00;;;;4993426;28;20232;-78
2022/10/06 06:53:37;;;;;;;5.78;0.98;;;;;16.90;102519.00;;;;4989533;28;20194;-79
2022/10/06 06:56:05;;;;;;;4.78;1.20;;;;;16.90;102526.00;;;;4988248;28;20194;-79
2022/10/06 06:58:33;;;;;;;4.03;1.15;;;;;17.00;102530.00;;;;4985387;28;20198;-78
2022/10/06 07:01:12;;;;;;;3.72;0.70;;;;;17.00;102528.00;;;;4991826;28;20225;-78
2022/10/06 07:03:41;;;;;;;4.55;0.98;;;;;17.10;102544.00;;;;4981619;28;20194;-78
2022/10/06 07:06:11;;;;;;;3.53;0.85;;;;;17.20;102547.00;;;;4992579;28;20198;-77
2022/10/06 07:08:41;;;;;;;3.47;1.10;;;;;17.20;102559.00;;;;4984597;28;20212;-78
2022/10/06 07:11:16;;;;;;;5.18;1.10;;;;;17.20;102551.00;;;;4986836;28;20637;-78
2022/10/06 07:13:44;;;;;;;5.30;0.75;;;;;17.30;102557.00;;;;4986586;28;20221;-77
2022/10/06 07:27:18;;;;;;;4.72;1.42;;;;;17.70;102578.00;;;;4982428;28;20737;-78
2022/10/06 07:29:46;;;;;;;3.85;0.90;;;;;17.70;102586.00;;;;4987303;28;20229;-78
2022/10/06 07:32:13;;;;;;;8.43;1.35;;;;;17.80;102590.00;;;;4990769;28;20251;-77
2022/10/06 07:34:42;;;;;;;4.53;1.25;;;;;17.90;102589.00;;;;4980961;28;20201;-78
2022/10/06 07:37:09;;;;;;;5.40;1.10;;;;;18.00;102599.00;;;;4987673;28;20662;-78
2022/10/06 07:39:36;;;;;;;4.05;1.08;;;;;18.10;102607.00;;;;5008354;28;20243;-78
2022/10/06 07:42:07;;;;;;;5.20;1.00;;;;;18.10;102611.00;;;;4990999;28;20214;-78
2022/10/06 07:44:34;;;;;;;4.32;0.95;;;;;18.20;102616.00;;;;4987249;28;20229;-80
2022/10/06 07:47:04;;;;;;;5.10;0.90;;;;;18.30;102627.00;;;;4987079;28;20197;-78
2022/10/06 07:49:31;;;;;;;3.92;0.90;;;;;18.40;102622.00;;;;4987084;28;20686;-78
2022/10/06 07:52:00;;;;;;;6.53;1.52;;;;;18.50;102619.00;;;;4988480;28;20205;-78
2022/10/06 07:54:27;;;;;;;8.68;1.60;;;;;18.50;102627.00;;;;4987223;28;20198;-77
2022/10/06 07:56:55;;;;;;;6.22;1.30;;;;;18.60;102639.00;;;;4991390;28;20688;-77
2022/10/06 07:59:22;;;;;;;6.68;1.35;;;;;18.70;102629.00;;;;4995981;28;20212;-77
2022/10/06 08:01:51;;;;;;;6.20;0.68;;;;;18.80;102638.00;;;;4995605;28;20193;-77
2022/10/06 08:04:18;;;;;;;6.30;0.80;;;;;18.80;102643.00;;;;4993715;28;20223;-77
2022/10/06 08:06:46;;;;;;;6.75;1.25;;;;;18.90;102643.00;;;;5001403;28;20202;-77
2022/10/06 08:09:15;;;;;;;6.90;1.17;;;;;18.90;102645.00;;;;4989874;28;20202;-77
2022/10/06 08:11:43;;;;;;;3.08;1.00;;;;;19.00;102649.00;;;;4981656;28;20221;-77
2022/10/06 08:14:13;;;;;;;4.82;0.98;;;;;19.00;102653.00;;;;5000709;28;20694;-77
2022/10/06 08:16:41;;;;;;;2.53;0.90;;;;;19.10;102654.00;;;;4991900;28;20206;-77
2022/10/06 08:19:10;;;;;;;3.88;1.15;;;;;19.20;102651.00;;;;4992098;28;20217;-78
2022/10/06 08:21:38;;;;;;;5.63;0.65;;;;;19.20;102658.00;;;;5011887;28;20197;-77
2022/10/06 08:24:06;;;;;;;5.20;0.70;;;;;19.30;102659.00;;;;5001899;28;20212;-76
2022/10/06 08:26:34;;;;;;;4.43;1.20;;;;;19.30;102659.00;;;;4991256;28;20213;-76
2022/10/06 08:29:03;;;;;;;5.38;1.08;;;;;19.30;102661.00;;;;5003924;28;20197;-76
2022/10/06 08:31:31;;;;;;;4.15;1.05;;;;;19.40;102667.00;;;;4973913;28;20320;-78
2022/10/06 08:34:00;;;;;;;6.50;1.20;;;;;19.40;102670.00;;;;4991597;28;20201;-76
2022/10/06 08:36:28;;;;;;;7.10;0.65;;;;;19.50;102684.00;;;;5008282;28;20200;-76
2022/10/06 08:38:55;;;;;;;2.38;0.90;;;;;19.60;102680.00;;;;4989421;28;20194;-78
2022/10/06 08:41:26;;;;;;;4.40;0.80;;;;;19.60;102681.00;;;;4995168;28;20204;-77
2022/10/06 08:43:59;;;;;;;4.18;0.90;;;;;19.70;102695.00;;;;4990737;28;20201;-77
2022/10/06 08:46:36;;;;;;;3.28;1.08;;;;;19.70;102698.00;;;;4991582;28;20582;-77
2022/10/06 08:49:04;;;;;;;4.43;0.77;;;;;19.90;102694.00;;;;4990862;28;20197;-77
2022/10/06 08:51:48;;;;;;;2.90;0.80;;;;;19.90;102702.00;;;;4989540;28;20311;-77
2022/10/06 08:54:23;;;;;;;3.83;1.15;;;;;20.00;102702.00;;;;4992875;28;20208;-77
2022/10/06 08:57:02;;;;;;;9.82;0.85;;;;;20.10;102709.00;;;;4989607;28;20204;-77
2022/10/06 08:59:33;;;;;;;4.07;1.13;;;;;20.20;102701.00;;;;4984504;28;20201;-77
2022/10/06 09:02:06;;;;;;;4.78;1.00;;;;;20.30;102713.00;;;;4998922;28;20208;-76
2022/10/06 09:04:35;;;;;;;6.45;0.90;;;;;20.40;102715.00;;;;4989778;28;20407;-76
2022/10/06 09:07:05;;;;;;;6.38;1.10;;;;;20.50;102715.00;;;;4990248;28;20200;-77
2022/10/06 09:09:55;;;;;;;1.95;0.70;;;;;20.50;102725.00;;;;4994786;28;20200;-76
2022/10/06 09:12:32;;;;;;;8.40;0.95;;;;;20.60;102735.00;;;;5009946;28;20213;-77
2022/10/06 09:15:12;;;;;;;6.03;0.77;;;;;20.70;102735.00;;;;4989877;28;20217;-77
2022/10/06 09:17:45;;;;;;;4.47;0.85;;;;;20.70;102729.00;;;;4990139;28;20212;-76
2022/10/06 09:20:19;;;;;;;4.82;1.25;;;;;20.80;102737.00;;;;4989729;28;20202;-76
2022/10/06 09:22:49;;;;;;;3.67;0.80;;;;;20.90;102744.00;;;;4990620;28;20212;-77
2022/10/06 09:25:18;;;;;;;5.53;0.52;;;;;21.00;102749.00;;;;5000374;28;20605;-76
2022/10/06 09:27:49;;;;;;;3.72;1.17;;;;;21.00;102735.00;;;;5010319;28;20208;-77
2022/10/06 09:30:19;;;;;;;4.05;1.35;;;;;21.10;102741.00;;;;4996165;28;20296;-76
2022/10/06 09:32:48;;;;;;;3.67;0.60;;;;;21.30;102734.00;;;;4997016;28;20234;-76
2022/10/06 09:35:20;;;;;;;3.90;1.00;;;;;21.30;102741.00;;;;4987803;28;20464;-77
2022/10/06 09:37:55;;;;;;;6.72;1.00;;;;;21.40;102745.00;;;;4989466;28;20571;-77
2022/10/06 09:40:38;;;;;;;4.35;1.20;;;;;21.50;102744.00;;;;4999371;28;20578;-76
2022/10/06 09:43:16;;;;;;;3.50;0.95;;;;;21.60;102760.00;;;;4990952;28;20205;-76
2022/10/06 09:45:45;;;;;;;6.30;1.00;;;;;21.70;102764.00;;;;4989263;28;20233;-77
2022/10/06 09:48:19;;;;;;;3.00;0.63;;;;;21.70;102754.00;;;;4987602;28;20204;-78
2022/10/06 09:51:07;;;;;;;2.35;0.60;;;;;21.70;102755.00;;;;4984639;28;20221;-77
2022/10/06 09:53:38;;;;;;;6.78;1.58;;;;;22.00;102762.00;;;;4990463;28;20201;-79
2022/10/06 09:56:13;;;;;;;2.90;0.60;;;;;22.00;102751.00;;;;4988368;28;20232;-78
2022/10/06 09:58:52;;;;;;;3.17;0.50;;;;;22.20;102753.00;;;;4988021;28;20734;-79
2022/10/06 10:01:25;;;;;;;3.67;1.00;;;;;22.20;102755.00;;;;4987881;28;20229;-78
2022/10/06 10:03:56;;;;;;;4.18;0.98;;;;;22.30;102755.00;;;;4989188;28;20246;-78
2022/10/06 10:06:26;;;;;;;3.33;0.60;;;;;22.40;102744.00;;;;4994109;28;20197;-78
2022/10/06 10:09:08;;;;;;;5.07;1.33;;;;;22.50;102759.00;;;;4989815;28;20221;-78
2022/10/06 10:14:20;;;;;;;3.30;0.98;;;;;22.60;102760.00;;;;4989079;28;20304;-79
2022/10/06 10:16:50;;;;;;;4.78;0.60;;;;;22.70;102754.00;;;;4989453;28;20212;-79
2022/10/06 10:19:26;;;;;;;4.07;0.75;;;;;22.70;102768.00;;;;4983440;28;20205;-79
2022/10/06 10:21:56;;;;;;;4.60;1.20;;;;;22.80;102772.00;;;;4981698;28;20204;-79
2022/10/06 10:24:46;;;;;;;6.28;0.57;;;;;22.70;102761.00;;;;4988499;28;20260;-78
2022/10/06 10:27:18;;;;;;;5.80;0.70;;;;;22.80;102768.00;;;;4988187;28;20591;-80
2022/10/06 10:30:02;;;;;;;4.22;0.90;;;;;22.80;102774.00;;;;4989175;28;21048;-78
2022/10/06 10:32:43;;;;;;;6.65;0.50;;;;;22.80;102770.00;;;;4988962;28;20206;-78
2022/10/06 10:35:20;;;;;;;4.47;0.73;;;;;22.80;102771.00;;;;4989831;28;20233;-79
2022/10/06 10:37:51;;;;;;;4.07;0.70;;;;;22.90;102779.00;;;;4991122;28;20202;-79
2022/10/06 10:40:31;;;;;;;5.80;1.10;;;;;22.80;102778.00;;;;4987099;28;20217;-78
2022/10/06 10:43:11;;;;;;;7.88;0.85;;;;;22.80;102772.00;;;;4987070;28;20209;-78
2022/10/06 10:45:44;;;;;;;5.07;1.60;;;;;22.70;102788.00;;;;4990618;28;20193;-78
2022/10/06 10:48:18;;;;;;;5.50;2.88;;;;;22.70;102779.00;;;;4993130;28;20213;-79
2022/10/06 10:50:51;;;;;;;6.18;2.03;;;;;22.70;102776.00;;;;4995933;28;20225;-78
2022/10/06 10:53:26;;;;;;;4.85;1.80;;;;;22.70;102787.00;;;;4990302;28;20212;-78
2022/10/06 10:55:54;;;;;;;8.35;1.75;;;;;22.70;102789.00;;;;4987416;28;20205;-79
2022/10/06 10:58:28;;;;;;;4.28;1.52;;;;;22.70;102793.00;;;;4988577;28;20206;-79
2022/10/06 11:01:04;;;;;;;7.82;2.80;;;;;22.70;102790.00;;;;4987233;28;20229;-79
2022/10/06 11:03:32;;;;;;;5.93;3.03;;;;;22.80;102784.00;;;;4986778;28;21074;-79
2022/10/06 11:06:19;;;;;;;4.38;1.50;;;;;22.70;102788.00;;;;4991333;28;20205;-78
2022/10/06 11:08:54;;;;;;;1.90;0.82;;;;;22.80;102790.00;;;;4988621;28;21015;-78
2022/10/06 11:11:36;;;;;;;2.70;0.73;;;;;22.90;102790.00;;;;4980795;28;20225;-79
2022/10/06 11:14:09;;;;;;;4.15;1.67;;;;;22.90;102793.00;;;;4988816;28;20245;-79
2022/10/06 11:16:46;;;;;;;3.45;0.80;;;;;23.00;102799.00;;;;4990245;28;20201;-78
2022/10/06 11:19:24;;;;;;;4.63;1.48;;;;;23.00;102805.00;;;;4987033;28;20205;-79
2022/10/06 11:22:02;;;;;;;3.20;1.33;;;;;23.10;102803.00;;;;4988838;28;20615;-78
2022/10/06 11:24:40;;;;;;;20.42;12.45;;;;;23.10;102795.00;;;;4989783;28;20203;-78
2022/10/06 11:27:21;;;;;;;12.90;6.75;;;;;23.20;102798.00;;;;4986282;28;20671;-79
2022/10/06 11:30:00;;;;;;;5.50;2.65;;;;;23.30;102795.00;;;;4986576;28;20232;-78
2022/10/06 11:32:37;;;;;;;4.38;2.03;;;;;23.40;102798.00;;;;4990884;28;20233;-78
2022/10/06 11:35:19;;;;;;;2.08;1.02;;;;;23.30;102796.00;;;;4994420;28;20205;-77
2022/10/06 11:37:52;;;;;;;14.15;10.57;;;;;23.40;102791.00;;;;4991667;28;20251;-79
2022/10/06 11:40:38;;;;;;;7.22;2.75;;;;;23.30;102796.00;;;;4986309;28;20202;-78
2022/10/06 11:43:12;;;;;;;3.55;2.22;;;;;23.40;102798.00;;;;4990012;28;20209;-79
2022/10/06 11:45:48;;;;;;;11.07;6.03;;;;;23.40;102797.00;;;;4985612;28;20202;-79
2022/10/06 11:48:26;;;;;;;7.68;3.05;;;;;23.40;102795.00;;;;4986096;28;20215;-78
2022/10/06 11:50:56;;;;;;;3.88;1.83;;;;;23.50;102802.00;;;;4988693;28;20225;-79
2022/10/06 11:53:38;;;;;;;11.32;10.05;;;;;23.40;102800.00;;;;4989502;28;20209;-79
2022/10/06 11:56:37;;;;;;;5.90;3.80;;;;;23.40;102801.00;;;;5001856;28;20218;-79
2022/10/06 11:59:24;;;;;;;7.65;5.55;;;;;23.40;102798.00;;;;4991933;28;20982;-78
2022/10/06 12:01:54;;;;;;;5.82;2.38;;;;;23.40;102798.00;;;;4986442;28;20279;-78
2022/10/06 12:04:24;;;;;;;5.90;1.05;;;;;23.40;102794.00;;;;4990778;28;20221;-78
2022/10/06 12:07:03;;;;;;;5.57;3.60;;;;;23.40;102794.00;;;;5005627;28;20693;-78
2022/10/06 12:09:46;;;;;;;6.05;3.75;;;;;23.50;102792.00;;;;4988746;28;20193;-79
2022/10/06 12:12:42;;;;;;;3.75;1.25;;;;;23.50;102787.00;;;;4989969;28;20229;-79
2022/10/06 12:15:24;;;;;;;2.75;0.90;;;;;23.50;102794.00;;;;4998012;28;20267;-77
2022/10/06 12:17:59;;;;;;;1.70;0.55;;;;;23.60;102789.00;;;;4972617;28;20207;-79
2022/10/06 12:20:34;;;;;;;4.72;1.00;;;;;23.70;102795.00;;;;4993726;28;20201;-78
2022/10/06 12:23:14;;;;;;;7.22;0.73;;;;;23.70;102797.00;;;;4991956;28;20205;-78
2022/10/06 12:25:49;;;;;;;3.65;1.00;;;;;23.80;102793.00;;;;5004271;28;20217;-78
2022/10/06 12:28:26;;;;;;;1.83;1.27;;;;;23.80;102788.00;;;;5010948;28;20207;-78
2022/10/06 12:31:11;;;;;;;4.53;1.35;;;;;23.80;102777.00;;;;5010620;28;20308;-79
2022/10/06 12:33:41;;;;;;;3.20;1.20;;;;;23.80;102783.00;;;;5011027;28;20658;-79
2022/10/06 12:36:17;;;;;;;3.42;0.70;;;;;23.80;102788.00;;;;4997631;28;20212;-78
2022/10/06 12:39:04;;;;;;;3.33;0.82;;;;;23.80;102790.00;;;;4985130;28;20202;-78
2022/10/06 12:42:00;;;;;;;5.47;1.42;;;;;23.80;102794.00;;;;4985734;28;20724;-78